Time;durP1;ratioP1;P1;durP2;ratioP2;P2;SDS_P1;SDS_P2;PMS_P1;PMS_P2;Temp;Humidity;BMP_temperature;BMP_pressure;BME280_temperature;BME280_humidity;BME280_pressure;Samples;Min_cycle;Max_cycle;Signal;HPM_P1;HPM_P2
2021/04/23 00:00:16;;;;;;;14.23;3.10;;;5.80;67.50;;;;;;5073835;28;20112;-74
2021/04/23 00:02:48;;;;;;;6.93;2.30;;;5.80;67.60;;;;;;5069597;28;20055;-73
2021/04/23 00:05:16;;;;;;;7.87;2.30;;;5.70;67.90;;;;;;5063938;28;20028;-73
2021/04/23 00:07:42;;;;;;;14.60;2.70;;;5.70;68.00;;;;;;5054863;28;20020;-73
2021/04/23 00:10:11;;;;;;;10.70;2.80;;;5.70;68.30;;;;;;5038130;28;20112;-73
2021/04/23 00:12:37;;;;;;;10.57;2.50;;;5.60;68.40;;;;;;5055630;28;20021;-73
2021/04/23 00:15:05;;;;;;;7.70;2.37;;;5.50;68.50;;;;;;5055558;28;20017;-73
2021/04/23 00:17:30;;;;;;;13.93;2.70;;;5.50;68.90;;;;;;5054984;28;20013;-73
2021/04/23 00:19:56;;;;;;;12.63;2.80;;;5.50;68.90;;;;;;5055871;28;20037;-74
2021/04/23 00:22:22;;;;;;;12.33;3.00;;;5.40;68.80;;;;;;5019102;28;20033;-73
2021/04/23 00:24:47;;;;;;;7.80;2.87;;;5.40;69.00;;;;;;5035535;28;20033;-74
2021/04/23 00:27:13;;;;;;;10.70;2.93;;;5.40;69.10;;;;;;5018944;28;20075;-73
2021/04/23 00:29:38;;;;;;;8.10;3.03;;;5.30;69.30;;;;;;5053251;28;20040;-73
2021/04/23 00:32:06;;;;;;;6.80;2.87;;;5.30;69.30;;;;;;5053100;28;20048;-74
2021/04/23 00:34:32;;;;;;;11.47;3.43;;;5.20;69.70;;;;;;5035502;28;20021;-74
2021/04/23 00:36:58;;;;;;;16.90;3.03;;;5.20;70.10;;;;;;5051770;28;20025;-74
2021/04/23 00:39:23;;;;;;;8.77;2.87;;;5.20;70.10;;;;;;5071758;28;20021;-73
2021/04/23 00:41:49;;;;;;;12.97;3.53;;;5.10;70.60;;;;;;5055724;28;20075;-74
2021/04/23 00:44:15;;;;;;;6.23;2.10;;;5.00;70.50;;;;;;5055403;28;20421;-73
2021/04/23 00:46:40;;;;;;;12.40;2.30;;;5.00;70.80;;;;;;5055298;28;20032;-73
2021/04/23 00:49:07;;;;;;;13.13;3.37;;;5.00;71.10;;;;;;5055138;28;20099;-73
2021/04/23 00:51:43;;;;;;;13.60;3.03;;;4.90;71.10;;;;;;5073391;28;20024;-73
2021/04/23 00:54:09;;;;;;;13.17;3.40;;;4.90;71.30;;;;;;5072967;28;20020;-74
2021/04/23 00:56:38;;;;;;;10.03;3.00;;;4.90;71.50;;;;;;5073057;28;20024;-74
2021/04/23 00:59:06;;;;;;;9.97;2.63;;;4.90;71.70;;;;;;5055058;28;20111;-73
2021/04/23 01:01:42;;;;;;;10.17;2.70;;;4.80;72.00;;;;;;5072953;28;20049;-73
2021/04/23 01:04:12;;;;;;;5.90;2.40;;;4.80;72.00;;;;;;5055073;28;20503;-74
2021/04/23 01:06:38;;;;;;;8.67;2.37;;;4.80;72.20;;;;;;5055463;28;20078;-74
2021/04/23 01:09:15;;;;;;;12.53;2.60;;;4.80;72.20;;;;;;5076998;28;20035;-73
2021/04/23 01:11:41;;;;;;;8.90;2.70;;;4.80;72.30;;;;;;5058904;28;20021;-74
2021/04/23 01:14:08;;;;;;;11.40;3.20;;;4.90;72.50;;;;;;5076352;28;20061;-74
2021/04/23 01:16:34;;;;;;;11.20;3.17;;;4.80;72.40;;;;;;5058942;28;20060;-73
2021/04/23 01:19:00;;;;;;;9.43;2.47;;;4.80;72.40;;;;;;5058623;28;20060;-73
2021/04/23 01:21:32;;;;;;;11.03;3.93;;;4.80;72.60;;;;;;5076934;28;20078;-74
2021/04/23 01:23:59;;;;;;;12.13;2.57;;;4.80;73.40;;;;;;5076345;28;20056;-73
2021/04/23 01:26:28;;;;;;;14.47;2.73;;;4.80;72.90;;;;;;5041439;28;20024;-73
2021/04/23 01:28:55;;;;;;;6.67;2.37;;;4.90;73.20;;;;;;5058437;28;20093;-74
2021/04/23 01:31:23;;;;;;;8.20;2.70;;;4.90;73.20;;;;;;5058255;28;20547;-73
2021/04/23 01:33:52;;;;;;;12.20;2.70;;;4.90;73.20;;;;;;5058495;28;20079;-74
2021/04/23 01:36:19;;;;;;;9.23;2.80;;;4.90;73.20;;;;;;5076448;28;20056;-73
2021/04/23 01:38:47;;;;;;;8.97;2.60;;;5.00;73.20;;;;;;5041743;28;20478;-74
2021/04/23 01:41:13;;;;;;;10.77;3.20;;;5.00;73.30;;;;;;5075903;28;20028;-73
2021/04/23 01:43:38;;;;;;;11.67;3.47;;;5.10;73.40;;;;;;5058251;28;20039;-73
2021/04/23 01:46:06;;;;;;;10.00;2.97;;;4.90;73.40;;;;;;5058178;28;20388;-73
2021/04/23 01:48:33;;;;;;;11.27;3.33;;;4.90;73.50;;;;;;5058373;28;20561;-73
2021/04/23 01:51:00;;;;;;;13.43;3.90;;;4.90;73.80;;;;;;5076665;28;20108;-73
2021/04/23 01:53:26;;;;;;;10.50;2.93;;;4.80;74.00;;;;;;5058125;28;20013;-73
2021/04/23 01:55:52;;;;;;;9.23;3.10;;;4.80;74.40;;;;;;5076075;28;20104;-79
2021/04/23 01:58:18;;;;;;;12.00;3.30;;;4.70;74.60;;;;;;5070058;28;20086;-79
2021/04/23 02:00:47;;;;;;;13.03;3.50;;;4.70;74.90;;;;;;5068083;28;20082;-78
2021/04/23 02:03:15;;;;;;;13.90;4.83;;;4.70;75.10;;;;;;5057400;28;20395;-79
2021/04/23 02:05:42;;;;;;;9.83;3.53;;;4.60;75.20;;;;;;5075864;28;20035;-79
2021/04/23 02:08:09;;;;;;;10.30;3.23;;;4.50;75.40;;;;;;5057728;28;20082;-79
2021/04/23 02:10:42;;;;;;;8.90;3.53;;;4.50;75.60;;;;;;5057956;28;20036;-79
2021/04/23 02:13:08;;;;;;;14.33;3.00;;;4.40;76.00;;;;;;5075588;28;20050;-79
2021/04/23 02:15:34;;;;;;;10.30;2.77;;;4.40;76.00;;;;;;5057591;28;20032;-79
2021/04/23 02:18:00;;;;;;;12.30;3.50;;;4.40;76.20;;;;;;5057072;28;20025;-79
2021/04/23 02:20:32;;;;;;;11.20;4.00;;;4.30;76.20;;;;;;5075410;28;20025;-79
2021/04/23 02:23:00;;;;;;;13.10;3.73;;;4.30;76.20;;;;;;5075325;28;20039;-79
2021/04/23 02:25:27;;;;;;;11.47;4.30;;;4.20;76.40;;;;;;5075311;28;20498;-79
2021/04/23 02:27:53;;;;;;;12.43;4.27;;;4.20;76.70;;;;;;5054180;28;20032;-73
2021/04/23 02:30:28;;;;;;;14.37;3.80;;;4.20;76.70;;;;;;5051310;28;20025;-74
2021/04/23 02:32:55;;;;;;;12.63;4.80;;;4.10;76.90;;;;;;5055324;28;20480;-73
2021/04/23 02:35:21;;;;;;;8.60;3.13;;;4.10;77.00;;;;;;5037108;28;20112;-73
2021/04/23 02:37:48;;;;;;;8.20;3.37;;;4.10;77.20;;;;;;5055255;28;20033;-73
2021/04/23 02:40:17;;;;;;;10.00;3.30;;;4.10;77.30;;;;;;5037898;28;20060;-73
2021/04/23 02:42:43;;;;;;;10.57;4.03;;;4.10;77.50;;;;;;5043564;28;20051;-73
2021/04/23 02:45:13;;;;;;;9.23;3.40;;;4.10;77.60;;;;;;5057710;28;20024;-74
2021/04/23 02:47:40;;;;;;;9.50;3.27;;;4.00;77.70;;;;;;5074970;28;20025;-74
2021/04/23 02:50:14;;;;;;;12.87;3.53;;;4.00;77.90;;;;;;5075293;28;20029;-73
2021/04/23 02:52:40;;;;;;;7.03;3.20;;;4.00;78.10;;;;;;5075260;28;20029;-73
2021/04/23 02:55:08;;;;;;;10.93;3.57;;;3.90;78.90;;;;;;5056895;28;20028;-73
2021/04/23 02:57:34;;;;;;;13.20;2.93;;;3.90;78.70;;;;;;5040314;28;20387;-73
2021/04/23 02:59:59;;;;;;;11.53;2.97;;;3.80;78.70;;;;;;5074543;28;20119;-73
2021/04/23 03:02:25;;;;;;;9.27;3.83;;;3.80;78.80;;;;;;5056823;28;20468;-73
2021/04/23 03:04:51;;;;;;;12.87;3.53;;;3.80;78.80;;;;;;5056854;28;20492;-73
2021/04/23 03:07:21;;;;;;;8.87;2.80;;;3.80;78.90;;;;;;5057429;28;20043;-73
2021/04/23 03:09:48;;;;;;;10.23;3.20;;;3.70;79.50;;;;;;5056732;28;20062;-74
2021/04/23 03:12:14;;;;;;;10.83;3.10;;;3.80;79.00;;;;;;5074502;28;20379;-74
2021/04/23 03:14:40;;;;;;;9.17;2.90;;;3.80;79.00;;;;;;5074062;28;20032;-73
2021/04/23 03:17:06;;;;;;;7.70;2.77;;;3.70;78.90;;;;;;5036304;28;20445;-73
2021/04/23 03:19:31;;;;;;;8.33;2.27;;;3.80;79.00;;;;;;5036591;28;20045;-73
2021/04/23 03:21:57;;;;;;;11.20;2.67;;;3.70;79.00;;;;;;5036742;28;20036;-74
2021/04/23 03:24:23;;;;;;;11.10;3.30;;;3.70;78.90;;;;;;5036389;28;20028;-73
2021/04/23 03:26:48;;;;;;;9.67;2.87;;;3.70;78.90;;;;;;5036315;28;20048;-74
2021/04/23 03:29:16;;;;;;;13.80;4.33;;;3.70;78.90;;;;;;5036075;28;20033;-74
2021/04/23 03:31:42;;;;;;;12.30;3.87;;;3.70;79.10;;;;;;5036284;28;20052;-74
2021/04/23 03:34:09;;;;;;;12.33;3.80;;;3.70;79.20;;;;;;5028459;28;20445;-73
2021/04/23 03:36:35;;;;;;;9.07;3.63;;;3.70;79.30;;;;;;5053655;28;20369;-73
2021/04/23 03:39:03;;;;;;;12.20;3.40;;;3.70;79.20;;;;;;5019460;28;20036;-74
2021/04/23 03:41:32;;;;;;;14.90;4.30;;;3.60;79.30;;;;;;5054105;28;20035;-73
2021/04/23 03:44:00;;;;;;;8.13;3.33;;;3.70;79.30;;;;;;5040732;28;20056;-73
2021/04/23 03:46:26;;;;;;;13.93;5.23;;;3.60;79.40;;;;;;5036134;28;20036;-73
2021/04/23 03:48:53;;;;;;;10.50;4.00;;;3.60;79.50;;;;;;5053470;28;20031;-73
2021/04/23 03:51:20;;;;;;;18.23;4.43;;;3.60;79.50;;;;;;5019572;28;20036;-73
2021/04/23 03:53:46;;;;;;;17.10;5.17;;;3.60;80.20;;;;;;5035942;28;20027;-73
2021/04/23 03:56:13;;;;;;;14.90;4.47;;;3.70;79.60;;;;;;5042632;28;20051;-73
2021/04/23 03:58:40;;;;;;;12.23;3.90;;;3.60;79.70;;;;;;5073541;28;20103;-74
2021/04/23 04:01:17;;;;;;;11.60;5.07;;;3.60;79.80;;;;;;5072129;28;20044;-73
2021/04/23 04:03:44;;;;;;;14.80;4.77;;;3.60;79.80;;;;;;5073546;28;20097;-74
2021/04/23 04:06:10;;;;;;;12.53;4.33;;;3.60;79.90;;;;;;5054771;28;20089;-74
2021/04/23 04:08:36;;;;;;;11.10;4.33;;;3.60;80.00;;;;;;5073122;28;20487;-73
2021/04/23 04:11:04;;;;;;;11.63;4.30;;;3.60;80.00;;;;;;5055456;28;20074;-73
2021/04/23 04:13:30;;;;;;;10.80;4.53;;;3.50;79.90;;;;;;5055191;28;20036;-73
2021/04/23 04:15:56;;;;;;;14.80;4.53;;;3.50;80.10;;;;;;5055238;28;20029;-73
2021/04/23 04:18:23;;;;;;;12.60;4.20;;;3.50;80.20;;;;;;5073524;28;20453;-73
2021/04/23 04:20:51;;;;;;;11.20;3.93;;;3.50;80.30;;;;;;5022736;28;20033;-74
2021/04/23 04:23:18;;;;;;;13.53;4.70;;;3.50;80.50;;;;;;5055733;28;20020;-79
2021/04/23 04:25:48;;;;;;;15.07;4.30;;;3.60;80.60;;;;;;5073473;28;20039;-80
2021/04/23 04:28:14;;;;;;;12.70;4.33;;;3.60;80.50;;;;;;5073628;28;20036;-73
2021/04/23 04:30:40;;;;;;;15.47;4.53;;;3.60;80.70;;;;;;5055500;28;20024;-74
2021/04/23 04:33:07;;;;;;;17.87;5.67;;;3.60;80.70;;;;;;5073577;28;20078;-74
2021/04/23 04:35:33;;;;;;;12.20;4.80;;;3.60;80.80;;;;;;5055677;28;20025;-74
2021/04/23 04:38:00;;;;;;;12.90;4.73;;;3.60;80.70;;;;;;5073455;28;20388;-74
2021/04/23 04:40:27;;;;;;;12.70;4.97;;;3.60;81.40;;;;;;5073172;28;20024;-74
2021/04/23 04:42:54;;;;;;;12.67;4.77;;;3.60;80.80;;;;;;5059302;28;20418;-73
2021/04/23 04:45:23;;;;;;;13.27;4.40;;;3.70;80.90;;;;;;5059634;28;20032;-74
2021/04/23 04:47:49;;;;;;;13.10;4.97;;;3.70;81.00;;;;;;5059431;28;20120;-74
2021/04/23 04:50:25;;;;;;;13.10;4.43;;;3.80;81.10;;;;;;5043296;28;20031;-73
2021/04/23 04:52:51;;;;;;;15.50;6.20;;;3.80;81.30;;;;;;5059648;28;20017;-74
2021/04/23 04:55:17;;;;;;;18.53;4.90;;;3.90;81.40;;;;;;5042508;28;20029;-73
2021/04/23 04:57:43;;;;;;;12.83;5.30;;;3.90;82.00;;;;;;5077316;28;20452;-73
2021/04/23 05:00:11;;;;;;;15.67;5.17;;;4.00;81.50;;;;;;5076926;28;20037;-74
2021/04/23 05:02:37;;;;;;;10.43;4.33;;;4.00;81.40;;;;;;5076370;28;20072;-80
2021/04/23 05:05:05;;;;;;;12.30;5.33;;;4.10;81.50;;;;;;5042434;28;20036;-80
2021/04/23 05:07:31;;;;;;;15.10;5.33;;;4.10;81.50;;;;;;5058983;28;20020;-80
2021/04/23 05:09:57;;;;;;;13.23;4.57;;;4.20;81.50;;;;;;5076818;28;20028;-80
2021/04/23 05:12:24;;;;;;;12.13;5.00;;;4.20;81.70;;;;;;5076804;28;20032;-80
2021/04/23 05:14:50;;;;;;;11.20;4.87;;;4.30;81.80;;;;;;5058664;28;20112;-79
2021/04/23 05:17:16;;;;;;;15.67;4.83;;;4.30;81.80;;;;;;5070623;28;20064;-80
2021/04/23 05:19:41;;;;;;;15.83;4.73;;;4.40;82.00;;;;;;5054903;28;20470;-79
2021/04/23 05:22:07;;;;;;;17.73;4.70;;;4.40;82.20;;;;;;5064972;28;20123;-79
2021/04/23 05:24:32;;;;;;;11.83;5.33;;;4.40;82.40;;;;;;5060003;28;20024;-80
2021/04/23 05:26:58;;;;;;;13.80;5.63;;;4.50;82.40;;;;;;5056367;28;20498;-79
2021/04/23 05:29:24;;;;;;;15.57;5.90;;;4.60;82.40;;;;;;5050886;28;20036;-79
2021/04/23 05:31:49;;;;;;;11.70;5.17;;;4.60;82.40;;;;;;5041466;28;20497;-74
2021/04/23 05:34:15;;;;;;;13.83;6.03;;;4.70;82.70;;;;;;5050812;28;20579;-75
2021/04/23 05:36:43;;;;;;;14.97;6.47;;;4.70;82.70;;;;;;5051399;28;20029;-74
2021/04/23 05:39:09;;;;;;;13.27;5.80;;;4.80;82.60;;;;;;5044698;28;20020;-74
2021/04/23 05:41:35;;;;;;;15.60;5.53;;;4.80;82.60;;;;;;5055629;28;20115;-74
2021/04/23 05:44:00;;;;;;;16.43;6.07;;;4.90;82.60;;;;;;5080485;28;20487;-74
2021/04/23 05:46:26;;;;;;;14.50;6.00;;;5.00;82.60;;;;;;5046568;28;20051;-81
2021/04/23 05:48:51;;;;;;;16.43;5.73;;;5.10;82.80;;;;;;5062661;28;20027;-80
2021/04/23 05:51:17;;;;;;;15.20;5.40;;;5.10;82.60;;;;;;5081140;28;20024;-80
2021/04/23 05:53:43;;;;;;;18.30;7.07;;;5.20;82.60;;;;;;5083173;28;20043;-80
2021/04/23 05:56:09;;;;;;;15.57;6.23;;;5.30;82.50;;;;;;5083265;28;20056;-80
2021/04/23 05:58:35;;;;;;;15.23;6.27;;;5.30;82.50;;;;;;5063308;28;20048;-80
2021/04/23 06:01:01;;;;;;;16.67;5.83;;;5.40;82.40;;;;;;5084356;28;20081;-80
2021/04/23 06:03:27;;;;;;;13.47;6.13;;;5.50;82.30;;;;;;5064491;28;20416;-80
2021/04/23 06:05:52;;;;;;;13.23;5.50;;;5.60;82.30;;;;;;5077641;28;20077;-80
2021/04/23 06:08:18;;;;;;;16.97;5.60;;;5.60;82.30;;;;;;5063863;28;20528;-81
2021/04/23 06:10:46;;;;;;;11.50;4.90;;;5.70;82.20;;;;;;5064141;28;20017;-80
2021/04/23 06:13:12;;;;;;;15.63;5.77;;;5.80;82.10;;;;;;5040639;28;20130;-80
2021/04/23 06:15:38;;;;;;;16.43;5.83;;;5.90;82.10;;;;;;5079518;28;20029;-81
2021/04/23 06:18:04;;;;;;;13.53;5.67;;;6.00;82.10;;;;;;5073397;28;20081;-80
2021/04/23 06:20:32;;;;;;;13.60;5.50;;;6.20;82.00;;;;;;5075195;28;20024;-80
2021/04/23 06:22:58;;;;;;;12.47;5.17;;;6.20;82.10;;;;;;5074991;28;20445;-81
2021/04/23 06:25:24;;;;;;;15.17;5.37;;;6.40;82.00;;;;;;5062253;28;20414;-80
2021/04/23 06:27:51;;;;;;;15.40;5.03;;;6.50;82.00;;;;;;5095330;28;20028;-80
2021/04/23 06:30:23;;;;;;;13.17;5.27;;;6.60;81.90;;;;;;5095254;28;20031;-80
2021/04/23 06:32:49;;;;;;;13.30;4.60;;;6.70;81.70;;;;;;5095318;28;20073;-81
2021/04/23 06:35:21;;;;;;;16.60;5.87;;;6.80;81.50;;;;;;5095395;28;20444;-81
2021/04/23 06:37:48;;;;;;;14.60;4.47;;;6.80;81.30;;;;;;5077024;28;20024;-75
2021/04/23 06:40:15;;;;;;;16.83;5.20;;;7.00;81.10;;;;;;5060727;28;20020;-74
2021/04/23 06:42:41;;;;;;;12.10;5.10;;;7.10;80.80;;;;;;5074998;28;20115;-80
2021/04/23 06:45:09;;;;;;;12.83;4.70;;;7.20;80.70;;;;;;5074876;28;20428;-80
2021/04/23 06:47:35;;;;;;;10.53;4.37;;;7.30;80.40;;;;;;5087250;28;20028;-80
2021/04/23 06:50:03;;;;;;;13.87;5.43;;;7.40;80.20;;;;;;5095001;28;20095;-80
2021/04/23 06:52:31;;;;;;;11.70;4.53;;;7.50;79.90;;;;;;5095230;28;20107;-80
2021/04/23 06:54:56;;;;;;;14.03;4.67;;;7.50;79.50;;;;;;5076804;28;20483;-80
2021/04/23 06:57:22;;;;;;;16.87;4.13;;;7.60;79.40;;;;;;5087135;28;20024;-81
2021/04/23 06:59:48;;;;;;;16.50;5.40;;;7.60;79.10;;;;;;5075560;28;20035;-81
2021/04/23 07:02:13;;;;;;;13.33;4.83;;;7.60;78.90;;;;;;5043543;28;20047;-75
2021/04/23 07:04:39;;;;;;;11.70;4.10;;;7.70;78.90;;;;;;5063219;28;20107;-81
2021/04/23 07:07:05;;;;;;;12.00;4.60;;;7.90;78.70;;;;;;5045180;28;20105;-75
2021/04/23 07:09:31;;;;;;;14.13;4.47;;;7.90;78.50;;;;;;5022558;28;20060;-79
2021/04/23 07:11:57;;;;;;;12.37;4.40;;;8.00;78.20;;;;;;5055313;28;20036;-74
2021/04/23 07:14:23;;;;;;;10.57;4.10;;;8.00;78.00;;;;;;5077101;28;20026;-74
2021/04/23 07:16:49;;;;;;;13.87;4.33;;;8.00;77.80;;;;;;5027210;28;20028;-80
2021/04/23 07:19:15;;;;;;;11.10;3.53;;;8.20;77.70;;;;;;5039969;28;20032;-80
2021/04/23 07:21:41;;;;;;;10.70;3.40;;;8.20;77.50;;;;;;5074204;28;20024;-80
2021/04/23 07:24:07;;;;;;;10.37;3.20;;;8.30;77.40;;;;;;5056073;28;20097;-74
2021/04/23 07:26:32;;;;;;;12.40;4.33;;;8.50;77.40;;;;;;5023341;28;20028;-74
2021/04/23 07:28:58;;;;;;;13.90;3.33;;;8.60;77.10;;;;;;5056248;28;20464;-74
2021/04/23 07:31:24;;;;;;;13.70;3.57;;;8.70;76.80;;;;;;5056351;28;20020;-75
2021/04/23 07:33:50;;;;;;;9.53;2.83;;;8.80;76.50;;;;;;5056493;28;20024;-74
2021/04/23 07:36:16;;;;;;;9.23;2.90;;;8.90;76.20;;;;;;5039881;28;20522;-75
2021/04/23 07:38:42;;;;;;;10.83;2.40;;;9.00;75.80;;;;;;5074294;28;20020;-75
2021/04/23 07:41:07;;;;;;;7.30;2.47;;;9.20;75.50;;;;;;5074619;28;20063;-72
2021/04/23 07:43:33;;;;;;;10.40;2.43;;;9.40;75.00;;;;;;5039608;28;20082;-74
2021/04/23 07:46:00;;;;;;;11.60;2.47;;;9.50;74.60;;;;;;5073663;28;20056;-74
2021/04/23 07:48:26;;;;;;;13.03;3.17;;;9.50;74.20;;;;;;5055395;28;20135;-75
2021/04/23 07:50:52;;;;;;;5.07;1.43;;;9.60;74.00;;;;;;5055972;28;20519;-71
2021/04/23 07:53:18;;;;;;;7.77;1.90;;;9.70;73.60;;;;;;5055882;28;20111;-72
2021/04/23 07:55:44;;;;;;;9.67;1.40;;;9.70;72.80;;;;;;5073945;28;20099;-71
2021/04/23 07:58:10;;;;;;;12.07;1.67;;;9.70;72.40;;;;;;5036082;28;20024;-72
2021/04/23 08:00:36;;;;;;;7.20;0.93;;;9.80;71.50;;;;;;5060423;28;20013;-74
2021/04/23 08:03:02;;;;;;;10.40;1.30;;;9.90;70.80;;;;;;5031348;28;20400;-74
2021/04/23 08:05:27;;;;;;;8.80;1.20;;;10.00;69.80;;;;;;5048031;28;20029;-74
2021/04/23 08:07:53;;;;;;;8.33;1.17;;;10.00;69.10;;;;;;5056019;28;20511;-74
2021/04/23 08:10:20;;;;;;;6.43;1.10;;;10.10;68.40;;;;;;5038973;28;20024;-74
2021/04/23 08:12:47;;;;;;;5.80;1.00;;;10.30;68.20;;;;;;5055675;28;20025;-74
2021/04/23 08:15:14;;;;;;;10.47;1.47;;;10.30;68.00;;;;;;5073401;28;20020;-74
2021/04/23 08:17:40;;;;;;;5.43;1.40;;;10.40;67.50;;;;;;5054922;28;20030;-73
2021/04/23 08:20:07;;;;;;;8.00;1.33;;;10.50;66.80;;;;;;5025057;28;20119;-74
2021/04/23 08:22:33;;;;;;;8.17;1.07;;;10.50;66.60;;;;;;5055344;28;20036;-74
2021/04/23 08:24:58;;;;;;;6.40;0.97;;;10.60;66.00;;;;;;5038815;28;20021;-75
2021/04/23 08:27:24;;;;;;;8.50;1.70;;;10.60;65.60;;;;;;5073392;28;20033;-74
2021/04/23 08:29:50;;;;;;;8.67;1.80;;;10.60;65.20;;;;;;5055569;28;20036;-74
2021/04/23 08:32:16;;;;;;;9.87;1.33;;;10.70;65.20;;;;;;5038719;28;20017;-74
2021/04/23 08:34:41;;;;;;;8.43;1.53;;;10.70;64.90;;;;;;5055058;28;20024;-73
2021/04/23 08:37:07;;;;;;;6.87;1.37;;;10.80;65.00;;;;;;5055388;28;20423;-73
2021/04/23 08:39:33;;;;;;;8.23;1.17;;;10.90;64.40;;;;;;5019020;28;20033;-74
2021/04/23 08:41:59;;;;;;;8.00;1.40;;;11.00;63.50;;;;;;5053004;28;20397;-73
2021/04/23 08:44:24;;;;;;;7.67;1.27;;;11.10;63.30;;;;;;5078074;28;20039;-73
2021/04/23 08:46:50;;;;;;;7.70;1.10;;;11.20;62.40;;;;;;5075349;28;20028;-72
2021/04/23 08:49:18;;;;;;;8.93;1.50;;;11.30;61.90;;;;;;5075201;28;20052;-74
2021/04/23 08:51:45;;;;;;;8.87;1.60;;;11.40;61.00;;;;;;5059062;28;20044;-74
2021/04/23 08:54:12;;;;;;;6.93;0.90;;;11.50;59.90;;;;;;5072497;28;20116;-74
2021/04/23 08:56:37;;;;;;;14.33;2.03;;;11.60;59.80;;;;;;5054567;28;20023;-74
2021/04/23 08:59:03;;;;;;;8.77;1.25;;;11.70;59.70;;;;;;5073116;28;20028;-74
2021/04/23 09:01:29;;;;;;;4.70;1.10;;;11.80;59.60;;;;;;5054612;28;20427;-72
2021/04/23 09:03:55;;;;;;;3.60;0.97;;;11.90;59.10;;;;;;5073082;28;20037;-71
2021/04/23 09:06:26;;;;;;;7.97;1.53;;;11.90;58.60;;;;;;5072595;28;20025;-72
2021/04/23 09:08:52;;;;;;;7.93;1.05;;;12.00;58.20;;;;;;5072461;28;20398;-72
2021/04/23 09:11:33;;;;;;;5.63;1.15;;;12.00;57.60;;;;;;5072742;28;20037;-74
2021/04/23 09:14:17;;;;;;;10.33;1.47;;;12.00;57.60;;;;;;5066742;28;20036;-72
2021/04/23 09:16:52;;;;;;;7.40;1.60;;;11.90;57.40;;;;;;5054653;28;20371;-73
2021/04/23 09:19:27;;;;;;;10.47;1.67;;;11.90;57.60;;;;;;5072640;28;20025;-71
2021/04/23 09:22:19;;;;;;;9.80;1.90;;;11.90;57.30;;;;;;5077029;28;20024;-72
2021/04/23 09:24:54;;;;;;;13.43;1.83;;;11.90;57.40;;;;;;5066028;28;20109;-71
2021/04/23 09:27:23;;;;;;;8.80;2.13;;;11.90;56.70;;;;;;5092974;28;20024;-72
2021/04/23 09:29:51;;;;;;;8.37;1.83;;;11.90;56.70;;;;;;5094604;28;20020;-72
2021/04/23 09:32:17;;;;;;;11.00;1.70;;;11.80;56.60;;;;;;5076348;28;20460;-72
2021/04/23 09:34:55;;;;;;;11.30;2.10;;;11.80;56.50;;;;;;5076322;28;20023;-72
2021/04/23 09:37:23;;;;;;;8.20;1.80;;;11.80;56.50;;;;;;5076303;28;20012;-74
2021/04/23 09:39:51;;;;;;;10.33;1.73;;;11.90;56.60;;;;;;5058001;28;20016;-72
2021/04/23 09:42:18;;;;;;;11.03;1.50;;;12.00;55.90;;;;;;5076131;28;20021;-72
2021/04/23 09:44:48;;;;;;;5.17;1.57;;;12.00;56.10;;;;;;5057811;28;20021;-72
2021/04/23 09:47:24;;;;;;;8.03;1.53;;;12.00;55.90;;;;;;5075877;28;20029;-73
2021/04/23 09:49:54;;;;;;;8.87;1.63;;;12.00;55.60;;;;;;5075976;28;20506;-72
2021/04/23 09:52:21;;;;;;;11.60;2.40;;;12.00;55.60;;;;;;5075656;28;20379;-72
2021/04/23 09:54:52;;;;;;;8.10;1.80;;;12.00;55.80;;;;;;5057943;28;20025;-72
2021/04/23 09:57:21;;;;;;;5.73;1.40;;;12.00;55.80;;;;;;5075698;28;20028;-72
2021/04/23 09:59:53;;;;;;;4.77;1.30;;;12.10;55.90;;;;;;5075629;28;20427;-72
2021/04/23 10:02:21;;;;;;;7.67;1.73;;;12.20;56.00;;;;;;5075524;28;20045;-72
2021/04/23 10:04:47;;;;;;;7.53;1.70;;;12.30;56.40;;;;;;5057667;28;20025;-72
2021/04/23 10:07:15;;;;;;;12.35;1.40;;;12.60;55.70;;;;;;5058080;28;20040;-77
2021/04/23 10:10:00;;;;;;;7.30;2.03;;;12.60;55.50;;;;;;5075390;28;20032;-76
2021/04/23 10:12:37;;;;;;;;;;;12.90;55.60;;;;;;5077664;28;20079;-77
2021/04/23 10:15:23;;;;;;;10.93;2.17;;;13.10;55.10;;;;;;5095845;28;20405;-77
2021/04/23 10:18:09;;;;;;;13.15;2.22;;;13.20;54.40;;;;;;5077508;28;20024;-72
2021/04/23 10:20:40;;;;;;;9.35;1.70;;;13.20;54.10;;;;;;5094553;28;20034;-72
2021/04/23 10:23:08;;;;;;;9.07;1.83;;;13.30;53.90;;;;;;5055377;28;20032;-73
2021/04/23 10:25:34;;;;;;;8.95;1.63;;;13.50;54.00;;;;;;5049070;28;20028;-72
2021/04/23 10:28:02;;;;;;;7.38;1.60;;;13.80;53.60;;;;;;5075295;28;20052;-72
2021/04/23 10:30:31;;;;;;;7.78;1.88;;;14.10;53.40;;;;;;5074577;28;20123;-73
2021/04/23 10:33:00;;;;;;;5.82;1.38;;;14.20;53.20;;;;;;5035031;28;20033;-72
2021/04/23 10:35:26;;;;;;;8.82;1.20;;;14.30;52.80;;;;;;5063741;28;20035;-72
2021/04/23 10:37:53;;;;;;;9.63;1.52;;;14.50;52.60;;;;;;5080226;28;20033;-72
2021/04/23 10:40:23;;;;;;;6.43;1.38;;;14.60;52.10;;;;;;5045540;28;20052;-72
2021/04/23 10:42:56;;;;;;;6.07;1.17;;;14.80;51.70;;;;;;5041027;28;20392;-73
2021/04/23 10:45:26;;;;;;;5.15;1.30;;;15.00;51.50;;;;;;5080110;28;20040;-72
2021/04/23 10:47:55;;;;;;;6.88;1.15;;;15.20;50.90;;;;;;5092764;28;20024;-72
2021/04/23 10:50:24;;;;;;;5.70;1.42;;;15.40;50.60;;;;;;5076901;28;20368;-72
2021/04/23 10:53:10;;;;;;;7.18;1.65;;;15.60;50.10;;;;;;5095370;28;20368;-72
2021/04/23 10:55:57;;;;;;;6.07;1.55;;;15.80;50.00;;;;;;5056663;28;20169;-73
2021/04/23 10:58:26;;;;;;;11.85;1.73;;;16.00;49.20;;;;;;5056955;28;20526;-73
2021/04/23 11:00:59;;;;;;;4.20;1.00;;;16.30;49.10;;;;;;5056753;28;20226;-73
2021/04/23 11:03:35;;;;;;;3.92;1.00;;;16.50;48.70;;;;;;5053142;28;20052;-73
2021/04/23 11:06:04;;;;;;;4.82;0.93;;;16.70;48.20;;;;;;5053347;28;20422;-72
2021/04/23 11:08:35;;;;;;;4.55;1.13;;;16.90;48.10;;;;;;5053156;28;20025;-72
2021/04/23 11:13:28;;;;;;;5.25;0.90;;;17.30;47.30;;;;;;5054454;28;20433;-72
2021/04/23 11:16:22;;;;;;;6.05;1.30;;;17.60;46.80;;;;;;5038252;28;20123;-72
2021/04/23 11:18:53;;;;;;;5.05;1.13;;;17.80;45.90;;;;;;5074596;28;20103;-71
2021/04/23 11:21:32;;;;;;;4.47;1.20;;;18.00;46.00;;;;;;5073033;28;20130;-72
2021/04/23 11:24:19;;;;;;;6.78;1.33;;;18.20;45.30;;;;;;5074250;28;20456;-72
2021/04/23 11:26:57;;;;;;;4.57;1.00;;;18.50;44.80;;;;;;5064816;28;20033;-72
2021/04/23 11:29:32;;;;;;;4.10;1.10;;;18.60;44.50;;;;;;5054411;28;20075;-73
2021/04/23 11:32:18;;;;;;;5.65;1.25;;;18.70;44.40;;;;;;5054171;28;20488;-72
2021/04/23 11:35:07;;;;;;;5.55;1.73;;;18.80;43.40;;;;;;5054097;28;20074;-73
2021/04/23 11:37:42;;;;;;;6.63;1.38;;;18.90;43.00;;;;;;5045061;28;20079;-72
2021/04/23 11:40:28;;;;;;;10.13;1.52;;;19.00;42.90;;;;;;5054483;28;20032;-72
2021/04/23 11:43:00;;;;;;;9.57;1.15;;;19.10;42.50;;;;;;5053746;28;20064;-72
2021/04/23 11:45:34;;;;;;;9.05;1.77;;;19.20;42.50;;;;;;5036325;28;20051;-72
2021/04/23 11:48:06;;;;;;;5.28;0.90;;;19.40;42.20;;;;;;5053487;28;20380;-73
2021/04/23 11:50:34;;;;;;;6.45;1.15;;;19.50;41.80;;;;;;5053158;28;20099;-72
2021/04/23 11:53:06;;;;;;;6.43;0.98;;;19.40;41.70;;;;;;5053619;28;20477;-72
2021/04/23 11:55:34;;;;;;;6.63;1.02;;;19.40;41.40;;;;;;5052430;28;20025;-72
2021/04/23 11:58:04;;;;;;;6.60;1.13;;;19.60;41.40;;;;;;5053729;28;20025;-74
2021/04/23 12:00:30;;;;;;;4.05;1.30;;;19.90;41.00;;;;;;5053995;28;20116;-74
2021/04/23 12:03:04;;;;;;;5.35;1.02;;;20.00;40.50;;;;;;5015949;28;20076;-73
2021/04/23 12:05:38;;;;;;;;;;;20.00;40.10;;;;;;5034213;28;20056;-74
2021/04/23 12:08:09;;;;;;;3.72;0.80;;;20.00;40.20;;;;;;5032603;28;19929;-72
2021/04/23 12:10:44;;;;;;;5.38;1.23;;;19.90;40.50;;;;;;5053324;28;20041;-73
2021/04/23 12:13:21;;;;;;;6.60;1.20;;;20.00;40.00;;;;;;5053515;28;20028;-74
2021/04/23 12:15:49;;;;;;;6.13;1.30;;;20.20;39.30;;;;;;5053591;28;20029;-73
2021/04/23 12:18:16;;;;;;;5.28;0.90;;;20.40;39.00;;;;;;5056808;28;20028;-73
2021/04/23 12:20:44;;;;;;;9.55;1.40;;;20.50;38.50;;;;;;5053257;28;20017;-72
2021/04/23 12:23:13;;;;;;;4.55;1.10;;;20.60;38.90;;;;;;5051869;28;20408;-72
2021/04/23 12:25:49;;;;;;;4.30;0.90;;;20.70;38.20;;;;;;5053018;28;20500;-72
2021/04/23 12:28:24;;;;;;;7.00;1.20;;;20.80;37.90;;;;;;5058095;28;20021;-72
2021/04/23 12:30:59;;;;;;;6.40;1.20;;;21.20;37.40;;;;;;5054573;28;20029;-73
2021/04/23 12:33:45;;;;;;;4.85;1.20;;;21.60;37.10;;;;;;5053285;28;20017;-73
2021/04/23 12:36:32;;;;;;;7.28;1.05;;;21.90;36.40;;;;;;5051937;28;20021;-75
2021/04/23 12:39:07;;;;;;;4.32;0.88;;;22.30;35.70;;;;;;5051435;28;20025;-74
2021/04/23 12:41:35;;;;;;;5.18;1.20;;;22.50;35.60;;;;;;5058178;28;20029;-75
2021/04/23 12:44:07;;;;;;;5.53;1.17;;;22.60;35.60;;;;;;5051770;28;20021;-74
2021/04/23 12:46:45;;;;;;;5.50;1.15;;;22.50;35.20;;;;;;5051567;28;20029;-74
2021/04/23 12:49:11;;;;;;;6.43;1.33;;;22.70;35.00;;;;;;5051573;28;20022;-75
2021/04/23 12:51:42;;;;;;;6.15;1.00;;;22.90;35.10;;;;;;5052645;28;20033;-75
2021/04/23 12:54:08;;;;;;;4.57;1.00;;;23.30;34.60;;;;;;5052925;28;20032;-75
2021/04/23 12:56:33;;;;;;;5.60;1.80;;;23.60;34.40;;;;;;5051677;28;20021;-75